Mobile, AL (36601)

3:05 PM CDT on August 27, 2015 (GMT -0500)
Downtown Waterfront | | Change Station
CLOSE
Current Station
Personal Weather Station
Location: Mobile, AL
Elevation: 13 ft
Nearby Weather Stations

Elev 13 ft 30.69 °N, 88.04 °W | Updated 3 seconds ago

Partly Cloudy
Partly Cloudy
86.7 °F
Feels Like 90 °F
N
15.0
Wind Variable Wind from North
Gusts 15.0 mph

Today
High -- | Low -- °F
--% Chance of Precip.
Yesterday
High -- | Low -- °F
Precip. -- in
6:25 AM 7:21 PM
Waxing Gibbous, 94% visible
Pressure 29.96 in
Visibility 10.0 miles
Clouds Clear
Heat Index 90 °F
Dew Point 68 °F
Humidity 54%
Rainfall 0.00 in
Snow Depth Not available.
UV 7.8 out of 12
Pollen 7.70 out of 12
Air Quality Not available.
Flu Activity Not available.
METAR KBFM 271953Z 01008KT 10SM CLR 31/18 A2996 RMK AO2 SLP145 T03110178
Pressure 29.96 in
Visibility 10.0 miles
Clouds Clear
Heat Index 90 °F
Dew Point 68 °F
Humidity 54%
Rainfall 0.00 in
Snow Depth Not available.
UV 7.8 out of 12
Pollen 7.70 out of 12
Air Quality Not available.
Flu Activity Not available.
METAR KBFM 271953Z 01008KT 10SM CLR 31/18 A2996 RMK AO2 SLP145 T03110178

10-Day Weather Forecast

×

Almanac

Astronomy

Aug. 27, 2015 Rise Set
Actual Time
Civil Twilight
Nautical Twilight
Astronomical Twilight
Moon
Length of Visible Light
Length of Day
Tomorrow will be .
, % of the Moon is Illuminated

Today's Extremes

State Highs State Lows

Community

WunderPhotos

Upload Photos

1,850,200 photos uploaded!

WunderBlogs® & News

Nearby

Air Quality

  Air Quality AQ Index Pollutant
Not available.

Snow Depth

Station Depth Elevation

Earthquake Activity

City Distance Mag. Time & Date
Minimum magnitude displayed is 2.5.

Coastal Water Temperatures

Place Temperature

Stations

Nearby Weather Stations

Station Location Temp. Windchill Dew Point Humidity Wind Precip. Elev Updated Type